sensor_id;sensor_type;location;lat;lon;timestamp;pressure;altitude;pressure_sealevel;temperature;humidity
62978;BME280;49073;42.352;23.808;2022-10-16T00:00:29;95360.97;;;6.40;76.08
62978;BME280;49073;42.352;23.808;2022-10-16T00:03:29;95360.22;;;6.48;75.54
62978;BME280;49073;42.352;23.808;2022-10-16T00:06:30;95368.28;;;6.43;75.32
62978;BME280;49073;42.352;23.808;2022-10-16T00:09:31;95368.47;;;6.47;74.69
62978;BME280;49073;42.352;23.808;2022-10-16T00:12:33;95365.47;;;6.22;75.10
62978;BME280;49073;42.352;23.808;2022-10-16T00:15:35;95367.88;;;6.01;76.31
62978;BME280;49073;42.352;23.808;2022-10-16T00:18:36;95366.19;;;6.14;76.01
62978;BME280;49073;42.352;23.808;2022-10-16T00:21:37;95369.50;;;6.19;75.49
62978;BME280;49073;42.352;23.808;2022-10-16T00:24:38;95370.25;;;6.11;75.80
62978;BME280;49073;42.352;23.808;2022-10-16T00:27:39;95366.84;;;6.19;75.12
62978;BME280;49073;42.352;23.808;2022-10-16T00:30:40;95367.50;;;6.25;74.42
62978;BME280;49073;42.352;23.808;2022-10-16T00:33:40;95375.88;;;6.18;75.05
62978;BME280;49073;42.352;23.808;2022-10-16T00:36:41;95375.84;;;6.09;74.70
62978;BME280;49073;42.352;23.808;2022-10-16T00:39:41;95379.66;;;5.94;75.75
62978;BME280;49073;42.352;23.808;2022-10-16T00:42:42;95377.50;;;5.96;76.02
62978;BME280;49073;42.352;23.808;2022-10-16T00:45:43;95385.66;;;5.86;75.39
62978;BME280;49073;42.352;23.808;2022-10-16T00:48:48;95383.03;;;5.86;75.88
62978;BME280;49073;42.352;23.808;2022-10-16T00:51:53;95390.00;;;5.82;76.42
62978;BME280;49073;42.352;23.808;2022-10-16T00:54:54;95397.53;;;5.89;75.77
62978;BME280;49073;42.352;23.808;2022-10-16T00:57:57;95408.19;;;5.75;76.40
62978;BME280;49073;42.352;23.808;2022-10-16T01:00:58;95415.50;;;5.78;76.62
62978;BME280;49073;42.352;23.808;2022-10-16T01:03:58;95412.31;;;5.90;76.08
62978;BME280;49073;42.352;23.808;2022-10-16T01:13:46;95407.63;;;5.87;75.76
62978;BME280;49073;42.352;23.808;2022-10-16T01:20:31;95409.72;;;5.67;76.56
62978;BME280;49073;42.352;23.808;2022-10-16T01:30:26;95421.91;;;5.54;77.30
62978;BME280;49073;42.352;23.808;2022-10-16T01:33:46;95418.59;;;5.71;76.59
62978;BME280;49073;42.352;23.808;2022-10-16T01:37:02;95425.59;;;5.76;75.55
62978;BME280;49073;42.352;23.808;2022-10-16T01:40:11;95418.19;;;5.55;75.40
62978;BME280;49073;42.352;23.808;2022-10-16T01:43:19;95424.56;;;5.54;76.15
62978;BME280;49073;42.352;23.808;2022-10-16T01:46:22;95411.63;;;5.52;75.61
62978;BME280;49073;42.352;23.808;2022-10-16T01:49:27;95414.59;;;5.51;76.51
62978;BME280;49073;42.352;23.808;2022-10-16T01:52:32;95417.03;;;5.47;76.11
62978;BME280;49073;42.352;23.808;2022-10-16T01:55:38;95413.31;;;5.48;75.92
62978;BME280;49073;42.352;23.808;2022-10-16T01:58:50;95418.44;;;5.45;76.25
62978;BME280;49073;42.352;23.808;2022-10-16T02:01:56;95416.41;;;5.42;75.70
62978;BME280;49073;42.352;23.808;2022-10-16T02:05:05;95412.25;;;5.27;75.39
62978;BME280;49073;42.352;23.808;2022-10-16T02:08:09;95416.09;;;5.20;76.07
62978;BME280;49073;42.352;23.808;2022-10-16T02:11:10;95421.84;;;5.22;76.34
62978;BME280;49073;42.352;23.808;2022-10-16T02:14:11;95415.09;;;5.30;75.85
62978;BME280;49073;42.352;23.808;2022-10-16T02:17:15;95420.53;;;5.34;75.31
62978;BME280;49073;42.352;23.808;2022-10-16T02:20:16;95423.06;;;5.16;75.65
62978;BME280;49073;42.352;23.808;2022-10-16T02:23:35;95427.03;;;5.28;76.33
62978;BME280;49073;42.352;23.808;2022-10-16T02:27:27;95421.38;;;5.20;76.89
62978;BME280;49073;42.352;23.808;2022-10-16T02:30:07;95428.59;;;5.29;76.84
62978;BME280;49073;42.352;23.808;2022-10-16T02:33:12;95436.22;;;5.30;76.67
62978;BME280;49073;42.352;23.808;2022-10-16T02:36:14;95433.94;;;5.37;76.37
62978;BME280;49073;42.352;23.808;2022-10-16T02:39:16;95435.19;;;5.40;75.73
62978;BME280;49073;42.352;23.808;2022-10-16T02:42:17;95437.66;;;5.36;75.30
62978;BME280;49073;42.352;23.808;2022-10-16T02:45:19;95440.22;;;5.28;75.37
62978;BME280;49073;42.352;23.808;2022-10-16T02:48:20;95443.59;;;5.19;75.29
62978;BME280;49073;42.352;23.808;2022-10-16T02:51:20;95432.59;;;5.03;75.00
62978;BME280;49073;42.352;23.808;2022-10-16T02:54:21;95442.66;;;5.01;76.01
62978;BME280;49073;42.352;23.808;2022-10-16T02:57:21;95431.47;;;5.18;75.82
62978;BME280;49073;42.352;23.808;2022-10-16T03:00:22;95440.72;;;5.30;75.02
62978;BME280;49073;42.352;23.808;2022-10-16T03:03:23;95442.00;;;5.32;74.73
62978;BME280;49073;42.352;23.808;2022-10-16T03:06:23;95444.97;;;5.17;74.44
62978;BME280;49073;42.352;23.808;2022-10-16T03:09:24;95453.13;;;5.06;74.67
62978;BME280;49073;42.352;23.808;2022-10-16T03:12:24;95460.00;;;4.93;75.57
62978;BME280;49073;42.352;23.808;2022-10-16T03:15:25;95447.25;;;4.95;75.32
62978;BME280;49073;42.352;23.808;2022-10-16T03:18:26;95446.25;;;4.83;75.80
62978;BME280;49073;42.352;23.808;2022-10-16T03:21:26;95453.59;;;4.72;76.62
62978;BME280;49073;42.352;23.808;2022-10-16T03:24:27;95439.78;;;4.75;75.82
62978;BME280;49073;42.352;23.808;2022-10-16T03:27:28;95438.81;;;4.71;75.59
62978;BME280;49073;42.352;23.808;2022-10-16T03:30:28;95446.47;;;4.72;76.27
62978;BME280;49073;42.352;23.808;2022-10-16T03:33:29;95455.03;;;4.64;76.54
62978;BME280;49073;42.352;23.808;2022-10-16T03:36:29;95447.63;;;4.66;76.79
62978;BME280;49073;42.352;23.808;2022-10-16T03:39:30;95457.13;;;4.53;76.78
62978;BME280;49073;42.352;23.808;2022-10-16T03:42:30;95455.66;;;4.47;77.19
62978;BME280;49073;42.352;23.808;2022-10-16T03:45:31;95454.19;;;4.55;77.40
62978;BME280;49073;42.352;23.808;2022-10-16T03:48:32;95450.66;;;4.59;77.32
62978;BME280;49073;42.352;23.808;2022-10-16T03:51:32;95449.91;;;4.31;77.55
62978;BME280;49073;42.352;23.808;2022-10-16T03:54:33;95450.28;;;4.38;77.35
62978;BME280;49073;42.352;23.808;2022-10-16T03:57:33;95451.66;;;4.49;77.59
62978;BME280;49073;42.352;23.808;2022-10-16T04:00:34;95450.94;;;4.58;76.28
62978;BME280;49073;42.352;23.808;2022-10-16T04:03:35;95459.47;;;4.41;76.85
62978;BME280;49073;42.352;23.808;2022-10-16T04:06:35;95456.44;;;4.33;77.91
62978;BME280;49073;42.352;23.808;2022-10-16T04:09:36;95456.31;;;4.39;77.45
62978;BME280;49073;42.352;23.808;2022-10-16T04:12:36;95460.94;;;4.47;77.74
62978;BME280;49073;42.352;23.808;2022-10-16T04:15:37;95455.16;;;4.59;76.73
62978;BME280;49073;42.352;23.808;2022-10-16T04:18:38;95459.47;;;4.55;76.54
62978;BME280;49073;42.352;23.808;2022-10-16T04:21:39;95463.28;;;4.62;76.43
62978;BME280;49073;42.352;23.808;2022-10-16T04:24:41;95458.75;;;4.63;74.94
62978;BME280;49073;42.352;23.808;2022-10-16T04:27:41;95448.03;;;4.45;75.93
62978;BME280;49073;42.352;23.808;2022-10-16T04:30:42;95460.47;;;4.45;76.51
62978;BME280;49073;42.352;23.808;2022-10-16T04:33:43;95458.00;;;4.48;76.02
62978;BME280;49073;42.352;23.808;2022-10-16T04:36:47;95461.03;;;4.56;75.95
62978;BME280;49073;42.352;23.808;2022-10-16T04:39:47;95470.31;;;4.53;76.55
62978;BME280;49073;42.352;23.808;2022-10-16T04:42:48;95453.41;;;4.54;75.50
62978;BME280;49073;42.352;23.808;2022-10-16T04:45:48;95465.22;;;4.57;75.04
62978;BME280;49073;42.352;23.808;2022-10-16T04:48:51;95464.19;;;4.44;76.11
62978;BME280;49073;42.352;23.808;2022-10-16T04:51:51;95474.16;;;4.47;75.62
62978;BME280;49073;42.352;23.808;2022-10-16T04:54:52;95477.53;;;4.33;76.41
62978;BME280;49073;42.352;23.808;2022-10-16T04:57:52;95476.19;;;4.36;77.27
62978;BME280;49073;42.352;23.808;2022-10-16T05:00:53;95483.50;;;4.39;77.57
62978;BME280;49073;42.352;23.808;2022-10-16T05:03:53;95484.88;;;4.50;76.92
62978;BME280;49073;42.352;23.808;2022-10-16T05:06:54;95493.56;;;4.65;76.58
62978;BME280;49073;42.352;23.808;2022-10-16T05:09:54;95499.53;;;4.71;76.67
62978;BME280;49073;42.352;23.808;2022-10-16T05:12:55;95502.19;;;4.85;76.10
62978;BME280;49073;42.352;23.808;2022-10-16T05:15:55;95504.72;;;4.90;76.14
62978;BME280;49073;42.352;23.808;2022-10-16T05:18:57;95514.31;;;4.86;77.10
62978;BME280;49073;42.352;23.808;2022-10-16T05:21:58;95507.16;;;4.86;77.08
62978;BME280;49073;42.352;23.808;2022-10-16T05:24:59;95511.44;;;4.96;77.64
62978;BME280;49073;42.352;23.808;2022-10-16T05:27:59;95513.28;;;5.09;78.42
62978;BME280;49073;42.352;23.808;2022-10-16T05:31:09;95528.22;;;5.28;80.49
62978;BME280;49073;42.352;23.808;2022-10-16T05:34:10;95519.63;;;5.22;81.89
62978;BME280;49073;42.352;23.808;2022-10-16T05:37:11;95522.38;;;5.17;82.39
62978;BME280;49073;42.352;23.808;2022-10-16T05:40:12;95532.22;;;5.39;82.45
62978;BME280;49073;42.352;23.808;2022-10-16T05:43:13;95529.03;;;5.51;82.70
62978;BME280;49073;42.352;23.808;2022-10-16T05:46:14;95538.69;;;5.70;83.64
62978;BME280;49073;42.352;23.808;2022-10-16T05:49:16;95537.59;;;5.71;84.33
62978;BME280;49073;42.352;23.808;2022-10-16T05:52:16;95537.72;;;5.89;84.40
62978;BME280;49073;42.352;23.808;2022-10-16T05:55:17;95543.25;;;6.01;85.38
62978;BME280;49073;42.352;23.808;2022-10-16T05:58:18;95552.81;;;6.11;86.10
62978;BME280;49073;42.352;23.808;2022-10-16T06:01:19;95549.38;;;6.10;86.82
62978;BME280;49073;42.352;23.808;2022-10-16T06:04:24;95545.72;;;6.20;86.55
62978;BME280;49073;42.352;23.808;2022-10-16T06:07:24;95541.22;;;6.21;86.30
62978;BME280;49073;42.352;23.808;2022-10-16T06:10:25;95552.31;;;6.32;86.74
62978;BME280;49073;42.352;23.808;2022-10-16T06:13:25;95554.09;;;6.45;86.65
62978;BME280;49073;42.352;23.808;2022-10-16T06:16:26;95553.53;;;6.57;86.03
62978;BME280;49073;42.352;23.808;2022-10-16T06:19:28;95558.31;;;6.78;84.93
62978;BME280;49073;42.352;23.808;2022-10-16T06:22:29;95570.31;;;6.93;85.25
62978;BME280;49073;42.352;23.808;2022-10-16T06:25:30;95569.09;;;6.90;86.30
62978;BME280;49073;42.352;23.808;2022-10-16T06:28:31;95564.75;;;7.03;86.02
62978;BME280;49073;42.352;23.808;2022-10-16T06:31:32;95569.00;;;7.13;86.02
62978;BME280;49073;42.352;23.808;2022-10-16T06:34:33;95572.56;;;7.08;85.04
62978;BME280;49073;42.352;23.808;2022-10-16T06:37:33;95585.69;;;7.13;85.29
62978;BME280;49073;42.352;23.808;2022-10-16T06:40:34;95581.03;;;7.28;85.39
62978;BME280;49073;42.352;23.808;2022-10-16T06:43:35;95584.81;;;7.45;85.48
62978;BME280;49073;42.352;23.808;2022-10-16T06:46:36;95573.88;;;7.55;85.31
62978;BME280;49073;42.352;23.808;2022-10-16T06:49:37;95576.72;;;7.67;85.20
62978;BME280;49073;42.352;23.808;2022-10-16T06:52:37;95580.59;;;7.88;85.13
62978;BME280;49073;42.352;23.808;2022-10-16T06:55:38;95587.00;;;7.95;84.62
62978;BME280;49073;42.352;23.808;2022-10-16T06:58:40;95587.78;;;8.13;84.04
62978;BME280;49073;42.352;23.808;2022-10-16T07:01:41;95592.94;;;8.27;82.32
62978;BME280;49073;42.352;23.808;2022-10-16T07:04:42;95596.97;;;8.34;82.24
62978;BME280;49073;42.352;23.808;2022-10-16T07:07:42;95603.03;;;8.43;82.64
62978;BME280;49073;42.352;23.808;2022-10-16T07:10:43;95599.59;;;8.60;82.61
62978;BME280;49073;42.352;23.808;2022-10-16T07:13:44;95606.91;;;8.72;83.26
62978;BME280;49073;42.352;23.808;2022-10-16T07:16:47;95616.38;;;8.91;82.58
62978;BME280;49073;42.352;23.808;2022-10-16T07:19:48;95611.75;;;9.09;82.47
62978;BME280;49073;42.352;23.808;2022-10-16T07:22:48;95607.59;;;9.29;81.60
62978;BME280;49073;42.352;23.808;2022-10-16T07:25:58;95602.00;;;9.52;80.75
62978;BME280;49073;42.352;23.808;2022-10-16T07:28:59;95609.41;;;9.67;80.71
62978;BME280;49073;42.352;23.808;2022-10-16T07:31:59;95605.06;;;9.84;80.16
62978;BME280;49073;42.352;23.808;2022-10-16T07:35:00;95606.63;;;9.85;77.84
62978;BME280;49073;42.352;23.808;2022-10-16T07:38:00;95607.59;;;9.80;77.47
62978;BME280;49073;42.352;23.808;2022-10-16T07:41:03;95610.78;;;9.95;77.56
62978;BME280;49073;42.352;23.808;2022-10-16T07:44:04;95607.00;;;10.17;77.01
62978;BME280;49073;42.352;23.808;2022-10-16T07:47:05;95609.06;;;10.32;76.88
62978;BME280;49073;42.352;23.808;2022-10-16T07:50:05;95617.03;;;10.54;76.24
62978;BME280;49073;42.352;23.808;2022-10-16T07:53:07;95617.84;;;10.67;75.52
62978;BME280;49073;42.352;23.808;2022-10-16T07:56:08;95614.84;;;10.68;75.43
62978;BME280;49073;42.352;23.808;2022-10-16T07:59:08;95618.19;;;10.77;75.14
62978;BME280;49073;42.352;23.808;2022-10-16T08:02:09;95623.44;;;10.86;74.30
62978;BME280;49073;42.352;23.808;2022-10-16T08:05:09;95616.78;;;11.05;74.13
62978;BME280;49073;42.352;23.808;2022-10-16T08:08:15;95611.56;;;11.21;73.93
62978;BME280;49073;42.352;23.808;2022-10-16T08:11:15;95619.78;;;11.28;71.91
62978;BME280;49073;42.352;23.808;2022-10-16T08:14:16;95614.22;;;11.46;71.07
62978;BME280;49073;42.352;23.808;2022-10-16T08:17:16;95612.31;;;11.59;70.78
62978;BME280;49073;42.352;23.808;2022-10-16T08:20:17;95615.31;;;11.70;71.38
62978;BME280;49073;42.352;23.808;2022-10-16T08:23:17;95615.41;;;11.73;69.95
62978;BME280;49073;42.352;23.808;2022-10-16T08:26:18;95618.19;;;11.77;70.13
62978;BME280;49073;42.352;23.808;2022-10-16T08:29:19;95610.25;;;11.93;69.93
62978;BME280;49073;42.352;23.808;2022-10-16T08:32:19;95612.63;;;12.23;68.91
62978;BME280;49073;42.352;23.808;2022-10-16T08:35:20;95616.13;;;12.40;68.63
62978;BME280;49073;42.352;23.808;2022-10-16T08:38:20;95613.47;;;12.56;69.27
62978;BME280;49073;42.352;23.808;2022-10-16T08:48:17;95602.47;;;13.21;65.96
62978;BME280;49073;42.352;23.808;2022-10-16T08:51:26;95602.78;;;13.20;65.36
62978;BME280;49073;42.352;23.808;2022-10-16T08:57:30;95614.56;;;13.15;63.81
62978;BME280;49073;42.352;23.808;2022-10-16T09:00:34;95602.72;;;13.32;62.95
62978;BME280;49073;42.352;23.808;2022-10-16T09:06:52;95604.06;;;13.58;61.89
62978;BME280;49073;42.352;23.808;2022-10-16T09:13:29;95603.16;;;14.06;60.42
62978;BME280;49073;42.352;23.808;2022-10-16T09:16:41;95600.28;;;14.38;59.94
62978;BME280;49073;42.352;23.808;2022-10-16T09:19:51;95600.50;;;14.49;58.64
62978;BME280;49073;42.352;23.808;2022-10-16T09:23:26;95596.06;;;14.57;57.55
62978;BME280;49073;42.352;23.808;2022-10-16T09:26:27;95600.63;;;14.76;58.88
62978;BME280;49073;42.352;23.808;2022-10-16T09:29:29;95612.31;;;14.87;58.08
62978;BME280;49073;42.352;23.808;2022-10-16T09:32:29;95599.88;;;15.02;57.69
62978;BME280;49073;42.352;23.808;2022-10-16T09:35:42;95597.69;;;14.84;56.63
62978;BME280;49073;42.352;23.808;2022-10-16T09:38:43;95593.34;;;15.00;57.20
62978;BME280;49073;42.352;23.808;2022-10-16T09:41:44;95591.41;;;15.23;56.67
62978;BME280;49073;42.352;23.808;2022-10-16T09:44:50;95585.78;;;15.32;55.99
62978;BME280;49073;42.352;23.808;2022-10-16T09:47:51;95587.13;;;15.46;54.94
62978;BME280;49073;42.352;23.808;2022-10-16T09:51:02;95583.13;;;15.63;54.17
62978;BME280;49073;42.352;23.808;2022-10-16T09:54:14;95576.69;;;15.67;52.82
62978;BME280;49073;42.352;23.808;2022-10-16T09:57:15;95579.22;;;15.56;50.36
62978;BME280;49073;42.352;23.808;2022-10-16T10:00:17;95576.63;;;15.64;51.48
62978;BME280;49073;42.352;23.808;2022-10-16T10:06:54;95566.03;;;16.05;50.34
62978;BME280;49073;42.352;23.808;2022-10-16T10:09:56;95557.91;;;16.36;50.62
62978;BME280;49073;42.352;23.808;2022-10-16T10:12:57;95565.19;;;16.35;49.36
62978;BME280;49073;42.352;23.808;2022-10-16T10:15:59;95555.09;;;16.63;50.71
62978;BME280;49073;42.352;23.808;2022-10-16T10:19:00;95553.88;;;16.98;50.06
62978;BME280;49073;42.352;23.808;2022-10-16T10:22:01;95554.97;;;16.93;48.03
62978;BME280;49073;42.352;23.808;2022-10-16T10:25:14;95557.13;;;16.77;48.42
62978;BME280;49073;42.352;23.808;2022-10-16T10:31:53;95556.41;;;17.32;48.28
62978;BME280;49073;42.352;23.808;2022-10-16T10:35:42;95549.81;;;17.22;48.14
62978;BME280;49073;42.352;23.808;2022-10-16T10:45:16;95525.69;;;16.88;46.78
62978;BME280;49073;42.352;23.808;2022-10-16T10:51:47;95518.06;;;16.94;48.52
62978;BME280;49073;42.352;23.808;2022-10-16T10:54:58;95515.53;;;17.15;46.83
62978;BME280;49073;42.352;23.808;2022-10-16T11:02:10;95517.03;;;17.09;46.39
62978;BME280;49073;42.352;23.808;2022-10-16T11:08:47;95505.66;;;17.38;46.48
62978;BME280;49073;42.352;23.808;2022-10-16T11:15:15;95503.19;;;17.92;45.54
62978;BME280;49073;42.352;23.808;2022-10-16T11:18:24;95503.19;;;17.92;44.01
62978;BME280;49073;42.352;23.808;2022-10-16T11:21:30;95506.16;;;17.62;44.47
62978;BME280;49073;42.352;23.808;2022-10-16T11:24:44;95505.00;;;17.63;44.45
62978;BME280;49073;42.352;23.808;2022-10-16T11:34:46;95507.38;;;17.79;44.75
62978;BME280;49073;42.352;23.808;2022-10-16T11:37:49;95493.38;;;17.40;44.32
62978;BME280;49073;42.352;23.808;2022-10-16T11:40:52;95507.31;;;17.64;43.78
62978;BME280;49073;42.352;23.808;2022-10-16T11:50:46;95514.03;;;18.03;43.15
62978;BME280;49073;42.352;23.808;2022-10-16T11:54:00;95504.28;;;17.77;43.25
62978;BME280;49073;42.352;23.808;2022-10-16T11:57:13;95502.41;;;17.92;43.24
62978;BME280;49073;42.352;23.808;2022-10-16T12:00:23;95506.22;;;17.80;42.76
62978;BME280;49073;42.352;23.808;2022-10-16T12:03:30;95502.00;;;17.82;42.55
62978;BME280;49073;42.352;23.808;2022-10-16T12:06:41;95512.31;;;17.62;42.33
62978;BME280;49073;42.352;23.808;2022-10-16T12:09:44;95513.19;;;17.84;42.94
62978;BME280;49073;42.352;23.808;2022-10-16T12:12:44;95504.72;;;17.82;42.12
62978;BME280;49073;42.352;23.808;2022-10-16T12:15:46;95503.56;;;17.94;41.98
62978;BME280;49073;42.352;23.808;2022-10-16T12:18:47;95501.72;;;18.02;41.73
62978;BME280;49073;42.352;23.808;2022-10-16T12:21:50;95503.16;;;17.81;42.27
62978;BME280;49073;42.352;23.808;2022-10-16T12:24:51;95500.47;;;17.85;42.11
62978;BME280;49073;42.352;23.808;2022-10-16T12:27:57;95509.03;;;18.05;43.38
62978;BME280;49073;42.352;23.808;2022-10-16T12:31:03;95507.09;;;17.98;42.09
62978;BME280;49073;42.352;23.808;2022-10-16T12:34:05;95507.84;;;17.99;41.27
62978;BME280;49073;42.352;23.808;2022-10-16T12:37:33;95512.84;;;17.97;41.89
62978;BME280;49073;42.352;23.808;2022-10-16T12:40:36;95514.75;;;17.96;41.61
62978;BME280;49073;42.352;23.808;2022-10-16T12:43:43;95517.41;;;17.82;42.55
62978;BME280;49073;42.352;23.808;2022-10-16T12:46:44;95517.06;;;17.91;41.91
62978;BME280;49073;42.352;23.808;2022-10-16T12:49:50;95518.53;;;17.73;42.95
62978;BME280;49073;42.352;23.808;2022-10-16T12:52:51;95508.47;;;17.63;42.18
62978;BME280;49073;42.352;23.808;2022-10-16T12:59:13;95514.63;;;17.60;42.65
62978;BME280;49073;42.352;23.808;2022-10-16T13:05:32;95529.06;;;17.26;42.77
62978;BME280;49073;42.352;23.808;2022-10-16T13:28:45;95527.22;;;17.38;42.69
62978;BME280;49073;42.352;23.808;2022-10-16T13:31:46;95529.16;;;17.41;42.99
62978;BME280;49073;42.352;23.808;2022-10-16T13:34:48;95524.09;;;17.28;43.18
62978;BME280;49073;42.352;23.808;2022-10-16T13:37:49;95523.69;;;17.26;42.97
62978;BME280;49073;42.352;23.808;2022-10-16T13:43:56;95532.09;;;17.18;43.03
62978;BME280;49073;42.352;23.808;2022-10-16T13:47:01;95533.22;;;17.13;43.15
62978;BME280;49073;42.352;23.808;2022-10-16T13:50:06;95538.06;;;16.96;43.58
62978;BME280;49073;42.352;23.808;2022-10-16T13:53:14;95541.09;;;16.87;43.05
62978;BME280;49073;42.352;23.808;2022-10-16T13:56:17;95537.50;;;16.76;44.64
62978;BME280;49073;42.352;23.808;2022-10-16T13:59:37;95537.84;;;16.71;44.02
62978;BME280;49073;42.352;23.808;2022-10-16T14:02:39;95544.88;;;16.79;43.89
62978;BME280;49073;42.352;23.808;2022-10-16T14:05:55;95542.44;;;16.67;44.43
62978;BME280;49073;42.352;23.808;2022-10-16T14:09:24;95550.16;;;16.72;44.28
62978;BME280;49073;42.352;23.808;2022-10-16T14:12:26;95543.47;;;16.51;45.29
62978;BME280;49073;42.352;23.808;2022-10-16T14:15:27;95553.78;;;16.46;44.86
62978;BME280;49073;42.352;23.808;2022-10-16T14:18:29;95550.19;;;16.34;44.14
62978;BME280;49073;42.352;23.808;2022-10-16T14:21:30;95542.03;;;16.23;44.67
62978;BME280;49073;42.352;23.808;2022-10-16T14:24:33;95555.38;;;16.12;44.71
62978;BME280;49073;42.352;23.808;2022-10-16T14:27:36;95554.09;;;16.03;45.20
62978;BME280;49073;42.352;23.808;2022-10-16T14:30:37;95560.91;;;15.93;45.80
62978;BME280;49073;42.352;23.808;2022-10-16T14:33:38;95557.72;;;15.87;45.32
62978;BME280;49073;42.352;23.808;2022-10-16T14:36:40;95557.25;;;15.81;45.84
62978;BME280;49073;42.352;23.808;2022-10-16T14:39:41;95553.81;;;15.81;46.22
62978;BME280;49073;42.352;23.808;2022-10-16T14:42:43;95564.00;;;15.68;46.33
62978;BME280;49073;42.352;23.808;2022-10-16T14:45:51;95564.19;;;15.52;45.87
62978;BME280;49073;42.352;23.808;2022-10-16T14:49:18;95567.75;;;15.60;46.31
62978;BME280;49073;42.352;23.808;2022-10-16T14:52:17;95562.50;;;15.40;46.26
62978;BME280;49073;42.352;23.808;2022-10-16T14:55:19;95570.19;;;15.41;45.30
62978;BME280;49073;42.352;23.808;2022-10-16T14:58:21;95574.97;;;15.28;45.29
62978;BME280;49073;42.352;23.808;2022-10-16T15:01:23;95575.50;;;15.11;45.86
62978;BME280;49073;42.352;23.808;2022-10-16T15:04:23;95582.72;;;15.07;45.54
62978;BME280;49073;42.352;23.808;2022-10-16T15:07:24;95585.91;;;14.89;46.39
62978;BME280;49073;42.352;23.808;2022-10-16T15:10:27;95582.91;;;14.94;46.19
62978;BME280;49073;42.352;23.808;2022-10-16T15:13:27;95583.22;;;14.89;45.66
62978;BME280;49073;42.352;23.808;2022-10-16T15:16:28;95587.69;;;14.81;45.19
62978;BME280;49073;42.352;23.808;2022-10-16T15:19:29;95596.19;;;14.64;45.95
62978;BME280;49073;42.352;23.808;2022-10-16T15:22:30;95586.38;;;14.52;45.76
62978;BME280;49073;42.352;23.808;2022-10-16T15:25:37;95596.34;;;14.51;45.85
62978;BME280;49073;42.352;23.808;2022-10-16T15:28:39;95588.63;;;14.50;46.12
62978;BME280;49073;42.352;23.808;2022-10-16T15:31:40;95595.09;;;14.45;46.55
62978;BME280;49073;42.352;23.808;2022-10-16T15:34:43;95583.66;;;14.48;46.58
62978;BME280;49073;42.352;23.808;2022-10-16T15:37:43;95595.63;;;14.54;46.97
62978;BME280;49073;42.352;23.808;2022-10-16T15:40:46;95599.94;;;14.39;46.81
62978;BME280;49073;42.352;23.808;2022-10-16T15:43:50;95610.00;;;14.23;47.20
62978;BME280;49073;42.352;23.808;2022-10-16T15:46:54;95606.81;;;13.98;48.60
62978;BME280;49073;42.352;23.808;2022-10-16T15:49:54;95600.84;;;13.68;49.13
62978;BME280;49073;42.352;23.808;2022-10-16T15:52:55;95620.69;;;13.48;49.97
62978;BME280;49073;42.352;23.808;2022-10-16T15:55:55;95615.91;;;13.25;51.13
62978;BME280;49073;42.352;23.808;2022-10-16T15:58:56;95622.16;;;12.97;52.36
62978;BME280;49073;42.352;23.808;2022-10-16T16:01:58;95636.81;;;12.87;52.90
62978;BME280;49073;42.352;23.808;2022-10-16T16:04:59;95633.34;;;12.71;52.36
62978;BME280;49073;42.352;23.808;2022-10-16T16:07:59;95636.28;;;12.37;53.62
62978;BME280;49073;42.352;23.808;2022-10-16T16:11:07;95646.47;;;12.19;54.04
62978;BME280;49073;42.352;23.808;2022-10-16T16:14:14;95657.09;;;12.03;55.10
62978;BME280;49073;42.352;23.808;2022-10-16T16:17:15;95663.56;;;11.77;55.87
62978;BME280;49073;42.352;23.808;2022-10-16T16:20:16;95659.69;;;11.62;56.03
62978;BME280;49073;42.352;23.808;2022-10-16T16:23:16;95671.19;;;11.50;56.76
62978;BME280;49073;42.352;23.808;2022-10-16T16:26:25;95671.38;;;11.45;57.26
62978;BME280;49073;42.352;23.808;2022-10-16T16:29:26;95670.94;;;11.30;57.73
62978;BME280;49073;42.352;23.808;2022-10-16T16:32:26;95681.38;;;11.11;58.17
62978;BME280;49073;42.352;23.808;2022-10-16T16:35:27;95685.66;;;10.90;59.01
62978;BME280;49073;42.352;23.808;2022-10-16T16:38:28;95690.97;;;10.78;59.53
62978;BME280;49073;42.352;23.808;2022-10-16T16:41:30;95694.56;;;10.61;60.16
62978;BME280;49073;42.352;23.808;2022-10-16T16:44:30;95703.34;;;10.61;60.05
62978;BME280;49073;42.352;23.808;2022-10-16T16:47:31;95706.78;;;10.62;60.63
62978;BME280;49073;42.352;23.808;2022-10-16T16:50:35;95707.31;;;10.55;60.72
62978;BME280;49073;42.352;23.808;2022-10-16T16:53:37;95720.94;;;10.32;62.06
62978;BME280;49073;42.352;23.808;2022-10-16T16:56:37;95718.50;;;10.48;60.47
62978;BME280;49073;42.352;23.808;2022-10-16T16:59:38;95723.91;;;10.31;61.26
62978;BME280;49073;42.352;23.808;2022-10-16T17:02:38;95725.94;;;10.13;61.72
62978;BME280;49073;42.352;23.808;2022-10-16T17:05:43;95731.78;;;10.27;61.24
62978;BME280;49073;42.352;23.808;2022-10-16T17:08:43;95732.56;;;10.07;62.28
62978;BME280;49073;42.352;23.808;2022-10-16T17:11:44;95738.00;;;10.10;61.34
62978;BME280;49073;42.352;23.808;2022-10-16T17:14:45;95746.78;;;9.81;62.78
62978;BME280;49073;42.352;23.808;2022-10-16T17:17:46;95742.56;;;9.80;62.79
62978;BME280;49073;42.352;23.808;2022-10-16T17:20:47;95735.13;;;9.73;62.35
62978;BME280;49073;42.352;23.808;2022-10-16T17:23:50;95740.91;;;9.66;62.54
62978;BME280;49073;42.352;23.808;2022-10-16T17:26:51;95747.19;;;9.61;62.49
62978;BME280;49073;42.352;23.808;2022-10-16T17:29:52;95744.44;;;9.40;63.18
62978;BME280;49073;42.352;23.808;2022-10-16T17:32:53;95743.41;;;9.24;63.91
62978;BME280;49073;42.352;23.808;2022-10-16T17:35:53;95744.41;;;9.10;64.22
62978;BME280;49073;42.352;23.808;2022-10-16T17:38:54;95746.94;;;8.98;65.04
62978;BME280;49073;42.352;23.808;2022-10-16T17:41:55;95749.25;;;8.99;64.91
62978;BME280;49073;42.352;23.808;2022-10-16T17:44:55;95752.25;;;8.98;65.04
62978;BME280;49073;42.352;23.808;2022-10-16T17:47:59;95746.00;;;8.94;65.03